Weather at Harstad/Narvik Airport, Evenes

Public forecast

Using degrees Celsius for public forecast. Weather courtesy of forecast.io.

Current aviation weather report (METAR) for Harstad/Narvik Airport, Evenes

Report is more than 6 hours old.

Retrieved 2022/09/17 18:50 UTC (18 days ago):

ENEV 171850Z 35007KT 320V020 9999 BKN051 09/06 Q1001 RMK WIND 1400FT 36015KT

Aviation forecast (TAF) for Harstad/Narvik Airport, Evenes

Forecast is more than 12 hours old.

Retrieved 2022/09/17 18:10 UTC (18 days ago):

TAF ENEV 171700Z 1718/1818 01009KT 9999 FEW040 BKN050